Time;durP1;ratioP1;P1;durP2;ratioP2;P2;SDS_P1;SDS_P2;PMS_P1;PMS_P2;Temp;Humidity;BMP_temperature;BMP_pressure;BME280_temperature;BME280_humidity;BME280_pressure;Samples;Min_cycle;Max_cycle;Signal;HPM_P1;HPM_P2
2022/06/11 00:00:46;;;;;;;8.67;3.70;;;21.60;86.80;;;;;;5096638;28;20496;-71
2022/06/11 00:03:13;;;;;;;6.77;2.90;;;21.60;87.20;;;;;;5096086;28;20482;-71
2022/06/11 00:05:40;;;;;;;3.57;2.53;;;21.60;87.50;;;;;;5096548;28;20476;-71
2022/06/11 00:08:09;;;;;;;11.00;2.93;;;21.60;87.80;;;;;;5095453;28;20936;-71
2022/06/11 00:10:36;;;;;;;5.60;2.37;;;21.60;87.70;;;;;;5096311;28;20444;-70
2022/06/11 00:13:04;;;;;;;7.10;2.23;;;21.60;87.00;;;;;;5096563;28;20443;-73
2022/06/11 00:15:31;;;;;;;7.30;2.17;;;21.60;86.90;;;;;;5096318;28;20454;-73
2022/06/11 00:17:58;;;;;;;3.50;1.90;;;21.60;87.30;;;;;;5096550;28;20432;-74
2022/06/11 00:20:26;;;;;;;6.77;1.90;;;21.60;87.50;;;;;;5096723;28;20451;-73
2022/06/11 00:22:53;;;;;;;4.60;2.53;;;21.70;87.50;;;;;;5097236;28;20490;-73
2022/06/11 00:25:22;;;;;;;4.60;2.30;;;21.60;87.50;;;;;;5097992;28;20444;-73
2022/06/11 00:27:49;;;;;;;7.17;2.20;;;21.70;87.60;;;;;;5097497;28;20949;-73
2022/06/11 00:30:18;;;;;;;3.93;1.70;;;21.70;88.00;;;;;;5095883;28;20443;-73
2022/06/11 00:32:46;;;;;;;5.10;2.50;;;21.70;88.30;;;;;;5095885;28;20517;-74
2022/06/11 00:35:14;;;;;;;3.23;2.23;;;21.70;89.10;;;;;;5095520;28;20467;-74
2022/06/11 00:37:41;;;;;;;6.27;3.70;;;21.70;88.90;;;;;;5095830;28;20448;-74
2022/06/11 00:40:10;;;;;;;4.70;2.40;;;21.70;88.40;;;;;;5095815;28;20448;-74
2022/06/11 00:42:38;;;;;;;5.40;2.70;;;21.70;88.00;;;;;;5095552;28;20491;-73
2022/06/11 00:45:23;;;;;;;5.00;2.70;;;21.70;88.00;;;;;;5095802;28;20444;-71
2022/06/11 00:47:55;;;;;;;8.20;2.90;;;21.70;88.40;;;;;;5095664;28;20424;-71
2022/06/11 00:50:26;;;;;;;5.50;2.43;;;21.70;88.90;;;;;;5096197;28;20431;-71
2022/06/11 00:52:55;;;;;;;8.50;3.10;;;21.70;89.10;;;;;;5095755;28;20432;-71
2022/06/11 00:55:26;;;;;;;7.20;2.50;;;21.70;89.10;;;;;;5095460;28;20471;-71
2022/06/11 00:57:58;;;;;;;5.30;2.77;;;21.60;89.10;;;;;;5095389;28;20420;-71
2022/06/11 01:00:28;;;;;;;6.83;2.40;;;21.60;89.60;;;;;;5095175;28;20432;-71
2022/06/11 01:02:56;;;;;;;5.30;2.60;;;21.50;89.80;;;;;;5095071;28;20483;-70
2022/06/11 01:05:25;;;;;;;7.60;2.80;;;21.50;90.00;;;;;;5095064;28;20875;-70
2022/06/11 01:08:29;;;;;;;7.40;2.83;;;21.40;90.00;;;;;;5095058;28;20829;-70
2022/06/11 01:11:35;;;;;;;8.80;2.50;;;21.40;90.30;;;;;;5095079;28;20466;-70
2022/06/11 01:14:14;;;;;;;9.50;2.73;;;21.30;90.40;;;;;;5094994;28;20440;-70
2022/06/11 01:16:47;;;;;;;4.80;2.73;;;21.30;90.60;;;;;;5094997;28;20435;-70
2022/06/11 01:19:47;;;;;;;5.87;2.43;;;21.30;90.80;;;;;;5094805;28;20433;-72
2022/06/11 01:22:32;;;;;;;12.37;3.10;;;21.20;90.90;;;;;;5094470;28;20489;-73
2022/06/11 01:25:04;;;;;;;6.23;2.73;;;21.30;91.00;;;;;;5094869;28;20435;-73
2022/06/11 01:27:55;;;;;;;8.87;3.07;;;21.30;91.20;;;;;;5094866;28;20425;-73
2022/06/11 01:30:25;;;;;;;6.97;2.77;;;21.20;91.20;;;;;;5094906;28;20493;-72
2022/06/11 01:33:02;;;;;;;4.10;2.83;;;21.20;91.20;;;;;;5094814;28;20443;-73
2022/06/11 01:35:41;;;;;;;4.77;2.10;;;21.20;91.40;;;;;;5094275;28;20459;-73
2022/06/11 01:38:20;;;;;;;9.40;3.10;;;21.20;91.60;;;;;;5094629;28;20443;-73
2022/06/11 01:40:51;;;;;;;6.97;2.43;;;21.20;91.40;;;;;;5094441;28;20503;-72
2022/06/11 01:43:23;;;;;;;7.57;2.93;;;21.20;91.30;;;;;;5094230;28;20475;-72
2022/06/11 01:45:53;;;;;;;10.73;2.73;;;21.20;91.40;;;;;;5094407;28;20471;-73
2022/06/11 01:48:25;;;;;;;6.67;2.93;;;21.20;91.50;;;;;;5094282;28;20458;-73
2022/06/11 01:51:07;;;;;;;7.40;2.70;;;21.20;91.50;;;;;;5094358;28;20470;-72
2022/06/11 01:53:52;;;;;;;3.50;2.40;;;21.20;91.50;;;;;;5094290;28;20434;-73
2022/06/11 01:56:38;;;;;;;4.80;3.10;;;21.10;91.40;;;;;;5094251;28;20428;-73
2022/06/11 01:59:15;;;;;;;4.60;2.20;;;21.10;91.40;;;;;;5093972;28;20473;-73
2022/06/11 02:02:03;;;;;;;5.20;2.57;;;21.10;91.40;;;;;;5094189;28;20474;-73
2022/06/11 02:04:45;;;;;;;6.80;3.03;;;21.10;91.80;;;;;;5094290;28;20436;-73
2022/06/11 02:07:19;;;;;;;5.30;2.30;;;21.00;91.40;;;;;;5094191;28;20423;-70
2022/06/11 02:10:03;;;;;;;5.93;2.73;;;21.00;91.30;;;;;;5094053;28;20427;-71
2022/06/11 02:12:36;;;;;;;6.57;2.67;;;20.90;91.30;;;;;;5094098;28;20460;-71
2022/06/11 02:15:07;;;;;;;5.30;2.73;;;20.90;91.30;;;;;;5093946;28;20431;-71
2022/06/11 02:17:39;;;;;;;15.57;2.90;;;20.80;91.30;;;;;;5093955;28;20503;-71
2022/06/11 02:20:10;;;;;;;9.20;2.93;;;20.80;91.40;;;;;;5094561;28;20434;-71
2022/06/11 02:22:43;;;;;;;9.57;2.93;;;20.80;91.50;;;;;;5093756;28;20491;-71
2022/06/11 02:25:17;;;;;;;7.40;2.77;;;20.70;91.60;;;;;;5093887;28;20435;-71
2022/06/11 02:27:48;;;;;;;5.47;2.50;;;20.60;91.50;;;;;;5093472;28;20905;-71
2022/06/11 02:30:20;;;;;;;8.60;2.77;;;20.60;91.70;;;;;;5093887;28;20424;-71
2022/06/11 02:32:48;;;;;;;7.50;2.70;;;20.50;91.80;;;;;;5093478;28;20470;-69
2022/06/11 02:35:26;;;;;;;6.10;2.93;;;20.50;91.90;;;;;;5093315;28;20459;-68
2022/06/11 02:37:53;;;;;;;7.23;3.13;;;20.50;92.10;;;;;;5093789;28;20432;-70
2022/06/11 02:40:25;;;;;;;3.50;2.77;;;20.50;92.20;;;;;;5093664;28;20451;-70
2022/06/11 02:42:52;;;;;;;6.47;2.70;;;20.40;92.20;;;;;;5093566;28;20468;-69
2022/06/11 02:45:19;;;;;;;7.30;3.50;;;20.50;92.30;;;;;;5093646;28;20454;-69
2022/06/11 02:47:50;;;;;;;7.77;3.30;;;20.40;92.20;;;;;;5093356;28;20481;-70
2022/06/11 02:50:19;;;;;;;4.90;2.70;;;20.40;92.20;;;;;;5093585;28;20431;-69
2022/06/11 02:52:46;;;;;;;4.90;2.70;;;20.40;92.20;;;;;;5093510;28;20466;-69
2022/06/11 02:55:13;;;;;;;3.83;2.80;;;20.30;92.30;;;;;;5093818;28;20443;-69
2022/06/11 02:57:40;;;;;;;8.40;3.17;;;20.30;92.40;;;;;;5093736;28;20440;-69
2022/06/11 03:00:10;;;;;;;6.07;2.87;;;20.30;92.50;;;;;;5093842;28;20816;-69
2022/06/11 03:02:37;;;;;;;8.33;3.20;;;20.20;92.40;;;;;;5094926;28;20483;-69
2022/06/11 03:05:06;;;;;;;6.30;3.20;;;20.20;92.50;;;;;;5095688;28;20444;-69
2022/06/11 03:07:33;;;;;;;5.70;2.50;;;20.20;92.60;;;;;;5094476;28;20448;-69
2022/06/11 03:10:00;;;;;;;3.70;2.50;;;20.20;92.70;;;;;;5093115;28;20443;-69
2022/06/11 03:12:26;;;;;;;3.90;2.63;;;20.20;92.50;;;;;;5092955;28;20992;-69
2022/06/11 03:14:53;;;;;;;5.63;2.97;;;20.20;92.40;;;;;;5093375;28;20450;-69
2022/06/11 03:17:21;;;;;;;7.53;3.57;;;20.20;92.40;;;;;;5093273;28;20450;-70
2022/06/11 03:19:48;;;;;;;5.60;2.93;;;20.20;92.40;;;;;;5093285;28;20876;-69
2022/06/11 03:22:17;;;;;;;10.80;2.73;;;20.10;92.30;;;;;;5093134;28;20486;-69
2022/06/11 03:24:44;;;;;;;5.03;3.00;;;20.10;92.20;;;;;;5093387;28;20475;-69
2022/06/11 03:27:11;;;;;;;4.87;2.80;;;20.10;92.00;;;;;;5093147;28;20458;-69
2022/06/11 03:29:38;;;;;;;8.17;3.23;;;20.10;91.90;;;;;;5092877;28;20844;-69
2022/06/11 03:32:06;;;;;;;6.57;2.60;;;20.00;91.80;;;;;;5092723;28;20981;-70
2022/06/11 03:34:33;;;;;;;4.70;2.60;;;20.00;91.80;;;;;;5092742;28;20948;-70
2022/06/11 03:37:01;;;;;;;5.10;3.10;;;20.00;91.80;;;;;;5093118;28;20436;-70
2022/06/11 03:39:29;;;;;;;11.93;3.40;;;20.00;91.90;;;;;;5093049;28;20455;-70
2022/06/11 03:41:56;;;;;;;3.00;2.20;;;20.00;92.00;;;;;;5092959;28;20459;-71
2022/06/11 03:44:24;;;;;;;6.80;2.60;;;20.00;92.00;;;;;;5095324;28;20498;-71
2022/06/11 03:46:51;;;;;;;7.60;2.47;;;19.90;91.90;;;;;;5096692;28;20481;-71
2022/06/11 03:49:19;;;;;;;7.40;3.03;;;19.80;91.80;;;;;;5096590;28;20451;-71
2022/06/11 03:51:46;;;;;;;6.20;2.83;;;19.80;91.80;;;;;;5096580;28;20472;-71
2022/06/11 03:54:14;;;;;;;7.50;2.60;;;19.80;91.90;;;;;;5096303;28;20940;-71
2022/06/11 03:56:43;;;;;;;6.97;2.70;;;19.70;91.80;;;;;;5096143;28;20940;-71
2022/06/11 03:59:10;;;;;;;4.57;3.10;;;19.70;91.90;;;;;;5096412;28;20451;-70
2022/06/11 04:01:38;;;;;;;5.63;3.03;;;19.70;92.00;;;;;;5096347;28;20460;-70
2022/06/11 04:04:08;;;;;;;5.97;3.20;;;19.70;92.10;;;;;;5096327;28;20475;-70
2022/06/11 04:06:37;;;;;;;5.17;3.30;;;19.60;92.10;;;;;;5096641;28;20451;-70
2022/06/11 04:09:08;;;;;;;4.40;2.73;;;19.60;92.60;;;;;;5096651;28;20428;-70
2022/06/11 04:11:35;;;;;;;5.13;3.43;;;19.50;92.90;;;;;;5096706;28;20801;-70
2022/06/11 04:14:04;;;;;;;7.63;3.23;;;19.50;93.20;;;;;;5095920;28;20955;-70
2022/06/11 04:16:34;;;;;;;6.30;3.57;;;19.40;93.50;;;;;;5096802;28;20436;-70
2022/06/11 04:19:04;;;;;;;5.23;2.77;;;19.40;93.70;;;;;;5096119;28;20436;-70
2022/06/11 04:21:33;;;;;;;5.30;2.57;;;19.40;93.90;;;;;;5095943;28;20468;-70
2022/06/11 04:24:01;;;;;;;5.10;2.93;;;19.50;94.10;;;;;;5095877;28;20484;-70
2022/06/11 04:26:32;;;;;;;5.60;3.30;;;19.50;94.20;;;;;;5096003;28;20443;-70
2022/06/11 04:29:00;;;;;;;5.53;2.80;;;19.60;94.30;;;;;;5095872;28;20436;-70
2022/06/11 04:31:30;;;;;;;3.87;2.60;;;19.70;94.50;;;;;;5095517;28;21101;-70
2022/06/11 04:33:56;;;;;;;4.57;2.10;;;19.80;94.30;;;;;;5095517;28;20452;-70
2022/06/11 04:36:26;;;;;;;5.97;3.23;;;19.80;94.30;;;;;;5095794;28;20450;-70
2022/06/11 04:38:53;;;;;;;5.30;2.90;;;19.90;94.40;;;;;;5095770;28;20454;-70
2022/06/11 04:41:20;;;;;;;4.37;3.00;;;20.00;94.60;;;;;;5095692;28;20474;-69
2022/06/11 04:43:48;;;;;;;5.90;2.97;;;20.10;94.80;;;;;;5095561;28;20471;-69
2022/06/11 04:46:16;;;;;;;10.07;3.40;;;20.10;94.90;;;;;;5095606;28;20450;-69
2022/06/11 04:48:44;;;;;;;3.40;3.07;;;20.10;94.90;;;;;;5096111;28;20452;-69
2022/06/11 04:51:13;;;;;;;7.87;3.53;;;20.20;95.00;;;;;;5095444;28;20480;-70
2022/06/11 04:53:40;;;;;;;6.97;3.40;;;20.20;95.10;;;;;;5095405;28;20480;-70
2022/06/11 04:56:08;;;;;;;6.07;3.50;;;20.20;94.90;;;;;;5094979;28;20924;-70
2022/06/11 04:58:35;;;;;;;7.17;3.30;;;20.30;94.80;;;;;;5095296;28;20440;-70
2022/06/11 05:01:02;;;;;;;7.33;3.10;;;20.30;94.80;;;;;;5095145;28;20472;-70
2022/06/11 05:03:28;;;;;;;14.83;2.80;;;20.40;94.80;;;;;;5095144;28;20479;-70
2022/06/11 05:05:57;;;;;;;8.10;3.10;;;20.50;94.40;;;;;;5095154;28;20452;-70
2022/06/11 05:08:23;;;;;;;8.47;3.80;;;20.60;94.30;;;;;;5094851;28;20447;-69
2022/06/11 05:10:50;;;;;;;13.07;3.47;;;20.60;94.10;;;;;;5094986;28;20472;-69
2022/06/11 05:13:17;;;;;;;8.80;3.10;;;20.70;93.90;;;;;;5095060;28;20439;-69
2022/06/11 05:15:46;;;;;;;9.47;3.97;;;20.80;94.20;;;;;;5094992;28;20518;-69
2022/06/11 05:18:15;;;;;;;6.03;3.30;;;20.90;93.90;;;;;;5094598;28;20956;-69
2022/06/11 05:20:42;;;;;;;5.90;3.50;;;20.90;93.80;;;;;;5094807;28;20458;-70
2022/06/11 05:23:11;;;;;;;7.30;2.67;;;21.00;93.50;;;;;;5094801;28;20491;-70
2022/06/11 05:25:39;;;;;;;6.60;3.17;;;21.00;93.20;;;;;;5094889;28;20502;-70
2022/06/11 05:28:07;;;;;;;6.17;3.00;;;21.10;93.20;;;;;;5094861;28;20517;-70
2022/06/11 05:30:35;;;;;;;5.40;2.80;;;21.10;93.10;;;;;;5094396;28;20898;-70
2022/06/11 05:33:02;;;;;;;7.47;2.90;;;21.10;92.90;;;;;;5094503;28;20815;-70
2022/06/11 05:35:32;;;;;;;4.37;2.90;;;21.20;92.80;;;;;;5094590;28;20467;-70
2022/06/11 05:38:02;;;;;;;9.03;2.90;;;21.20;92.80;;;;;;5094694;28;20444;-70
2022/06/11 05:40:33;;;;;;;4.10;2.60;;;21.30;92.80;;;;;;5095682;28;20448;-70
2022/06/11 05:43:00;;;;;;;6.83;2.80;;;21.30;92.70;;;;;;5096097;28;20861;-70
2022/06/11 05:45:30;;;;;;;4.67;2.70;;;21.30;92.60;;;;;;5096103;28;20945;-70
2022/06/11 05:47:59;;;;;;;5.53;2.70;;;21.40;92.30;;;;;;5094450;28;20448;-70
2022/06/11 05:50:30;;;;;;;6.40;2.50;;;21.50;92.30;;;;;;5094049;28;20447;-70
2022/06/11 05:52:58;;;;;;;5.57;2.60;;;21.50;92.20;;;;;;5094429;28;20428;-70
2022/06/11 05:55:28;;;;;;;2.97;2.67;;;21.60;92.30;;;;;;5094678;28;20448;-69
2022/06/11 05:57:59;;;;;;;6.57;3.27;;;21.70;92.40;;;;;;5094141;28;20447;-69
2022/06/11 06:00:28;;;;;;;9.83;3.20;;;21.70;92.30;;;;;;5094119;28;20428;-70
2022/06/11 06:02:54;;;;;;;5.90;2.53;;;21.70;92.00;;;;;;5093738;28;20866;-69
2022/06/11 06:05:24;;;;;;;7.10;3.17;;;21.70;92.10;;;;;;5093851;28;20429;-69
2022/06/11 06:07:51;;;;;;;5.80;2.70;;;21.80;92.30;;;;;;5093589;28;20450;-68
2022/06/11 06:10:18;;;;;;;6.47;3.00;;;21.90;92.20;;;;;;5094056;28;20455;-69
2022/06/11 06:12:45;;;;;;;6.70;2.57;;;21.90;92.20;;;;;;5093961;28;20841;-68
2022/06/11 06:15:15;;;;;;;4.90;3.23;;;22.00;92.40;;;;;;5093951;28;20443;-68
2022/06/11 06:17:43;;;;;;;5.53;2.77;;;22.00;92.20;;;;;;5094799;28;20432;-68
2022/06/11 06:20:15;;;;;;;3.83;2.70;;;22.10;92.00;;;;;;5093667;28;20468;-69
2022/06/11 06:22:42;;;;;;;3.70;2.80;;;22.10;91.40;;;;;;5093749;28;20464;-68
2022/06/11 06:25:11;;;;;;;5.13;3.30;;;22.10;91.00;;;;;;5093730;28;20483;-68
2022/06/11 06:27:38;;;;;;;7.00;2.70;;;22.10;91.10;;;;;;5093421;28;20814;-68
2022/06/11 06:30:06;;;;;;;3.80;2.73;;;22.10;91.30;;;;;;5093467;28;20832;-68
2022/06/11 06:32:34;;;;;;;5.23;2.60;;;22.20;91.40;;;;;;5093680;28;20859;-69
2022/06/11 06:35:01;;;;;;;3.87;3.13;;;22.20;91.30;;;;;;5093386;28;20462;-69
2022/06/11 06:37:28;;;;;;;5.53;2.87;;;22.20;91.00;;;;;;5093659;28;20444;-69
2022/06/11 06:39:55;;;;;;;5.80;3.20;;;22.20;90.90;;;;;;5093405;28;20451;-69
2022/06/11 06:42:21;;;;;;;4.60;3.10;;;22.20;91.10;;;;;;5093688;28;20828;-69
2022/06/11 06:44:48;;;;;;;7.03;3.30;;;22.20;91.40;;;;;;5093648;28;20490;-69
2022/06/11 06:47:15;;;;;;;5.47;3.40;;;22.20;91.50;;;;;;5093903;28;20444;-69
2022/06/11 06:49:43;;;;;;;5.00;3.40;;;22.20;91.70;;;;;;5094051;28;20539;-69
2022/06/11 06:52:10;;;;;;;3.20;2.70;;;22.30;91.60;;;;;;5094117;28;20467;-70
2022/06/11 06:54:37;;;;;;;6.73;2.47;;;22.30;90.30;;;;;;5093526;28;20440;-69
2022/06/11 06:57:04;;;;;;;3.50;2.30;;;22.30;90.20;;;;;;5093502;28;20444;-69
2022/06/11 06:59:31;;;;;;;2.50;1.93;;;22.40;90.10;;;;;;5093543;28;20530;-69
2022/06/11 07:01:57;;;;;;;2.67;2.10;;;22.50;89.30;;;;;;5093430;28;20805;-69
2022/06/11 07:04:24;;;;;;;4.57;1.90;;;22.60;88.80;;;;;;5093169;28;21007;-69
2022/06/11 07:06:53;;;;;;;4.97;2.17;;;22.60;88.00;;;;;;5093042;28;20447;-69
2022/06/11 07:09:20;;;;;;;3.37;2.50;;;22.70;89.70;;;;;;5093044;28;20459;-69
2022/06/11 07:11:48;;;;;;;3.10;2.13;;;22.70;88.20;;;;;;5093277;28;20467;-69
2022/06/11 07:14:14;;;;;;;4.67;2.40;;;22.80;88.70;;;;;;5093452;28;20898;-72
2022/06/11 07:16:48;;;;;;;4.90;2.07;;;22.90;87.50;;;;;;5093132;28;20936;-72
2022/06/11 07:19:20;;;;;;;3.80;2.30;;;22.90;86.50;;;;;;5095896;28;20763;-72
2022/06/11 07:21:53;;;;;;;2.83;1.90;;;22.90;86.20;;;;;;5097267;28;20466;-72
2022/06/11 07:24:23;;;;;;;3.87;2.07;;;23.00;85.50;;;;;;5097224;28;20527;-72
2022/06/11 07:26:53;;;;;;;3.07;1.40;;;23.10;84.50;;;;;;5097196;28;20439;-73
2022/06/11 07:29:24;;;;;;;4.20;1.50;;;23.00;84.20;;;;;;5096708;28;20451;-73
2022/06/11 07:31:55;;;;;;;4.10;1.80;;;23.20;85.30;;;;;;5097007;28;20831;-72
2022/06/11 07:34:22;;;;;;;4.90;1.80;;;23.20;83.90;;;;;;5096775;28;20967;-72
2022/06/11 07:36:49;;;;;;;2.73;1.70;;;23.30;83.70;;;;;;5097319;28;20444;-72
2022/06/11 07:39:17;;;;;;;3.73;1.70;;;23.40;82.90;;;;;;5097176;28;20447;-72
2022/06/11 07:41:44;;;;;;;3.90;1.80;;;23.30;82.50;;;;;;5096762;28;20460;-72
2022/06/11 07:44:11;;;;;;;3.43;1.83;;;23.30;83.40;;;;;;5097394;28;20479;-73
2022/06/11 07:46:37;;;;;;;3.87;1.77;;;23.40;83.50;;;;;;5096706;28;20446;-72
2022/06/11 07:49:04;;;;;;;6.07;2.00;;;23.40;84.30;;;;;;5096795;28;20454;-72
2022/06/11 07:51:31;;;;;;;4.00;2.40;;;23.50;82.80;;;;;;5096595;28;20468;-71
2022/06/11 07:53:58;;;;;;;4.13;2.23;;;23.70;80.70;;;;;;5095588;28;20433;-71
2022/06/11 07:56:26;;;;;;;5.63;2.93;;;24.00;79.00;;;;;;5096213;28;20458;-70
2022/06/11 07:58:53;;;;;;;5.20;1.93;;;24.20;77.60;;;;;;5097107;28;20803;-69
2022/06/11 08:01:20;;;;;;;8.27;2.50;;;24.40;77.20;;;;;;5096113;28;20479;-69
2022/06/11 08:03:47;;;;;;;7.67;2.37;;;24.60;75.80;;;;;;5096427;28;20475;-69
2022/06/11 08:06:14;;;;;;;4.77;2.07;;;24.70;75.00;;;;;;5096233;28;20440;-69
2022/06/11 08:08:41;;;;;;;2.63;1.60;;;24.80;74.10;;;;;;5096543;28;20448;-70
2022/06/11 08:11:08;;;;;;;3.40;1.70;;;25.10;74.60;;;;;;5096420;28;20464;-71
2022/06/11 08:13:36;;;;;;;1.40;1.30;;;25.30;71.50;;;;;;5096406;28;20451;-71
2022/06/11 08:16:04;;;;;;;4.87;1.83;;;25.50;71.20;;;;;;5096534;28;20457;-71
2022/06/11 08:18:32;;;;;;;3.30;1.37;;;25.60;72.60;;;;;;5096838;28;20450;-69
2022/06/11 08:20:59;;;;;;;7.50;1.73;;;25.80;70.40;;;;;;5097091;28;20466;-69
2022/06/11 08:23:26;;;;;;;3.30;1.50;;;25.80;69.40;;;;;;5096754;28;20451;-69
2022/06/11 08:25:53;;;;;;;3.03;1.87;;;25.70;69.40;;;;;;5095913;28;20443;-69
2022/06/11 08:28:21;;;;;;;4.50;1.93;;;25.60;69.90;;;;;;5095824;28;20805;-69
2022/06/11 08:30:49;;;;;;;4.63;2.20;;;25.40;70.10;;;;;;5095128;28;20470;-69
2022/06/11 08:33:17;;;;;;;4.23;2.00;;;25.20;71.80;;;;;;5095708;28;20444;-69
2022/06/11 08:35:44;;;;;;;5.63;1.80;;;25.10;72.80;;;;;;5095660;28;20436;-69
2022/06/11 08:38:11;;;;;;;2.37;1.83;;;25.10;72.80;;;;;;5095710;28;20439;-69
2022/06/11 08:40:43;;;;;;;4.40;2.60;;;25.00;73.00;;;;;;5095475;28;20455;-69
2022/06/11 08:43:18;;;;;;;2.20;1.80;;;24.90;73.50;;;;;;5095446;28;20443;-69
2022/06/11 08:45:47;;;;;;;2.60;1.63;;;24.90;73.70;;;;;;5095123;28;20823;-68
2022/06/11 08:48:26;;;;;;;2.70;1.30;;;24.70;70.30;;;;;;5095321;28;20440;-68
2022/06/11 08:51:10;;;;;;;11.27;3.20;;;24.50;72.20;;;;;;5095418;28;20463;-69
2022/06/11 08:53:39;;;;;;;5.33;2.17;;;24.50;73.70;;;;;;5095427;28;20439;-68
2022/06/11 08:56:11;;;;;;;5.43;2.23;;;24.50;73.10;;;;;;5095371;28;20450;-68
2022/06/11 08:58:58;;;;;;;4.83;2.73;;;24.50;74.20;;;;;;5095358;28;20432;-68
2022/06/11 09:01:39;;;;;;;4.00;2.70;;;24.50;74.70;;;;;;5095349;28;20467;-68
2022/06/11 09:04:31;;;;;;;2.60;2.20;;;24.60;73.40;;;;;;5095237;28;20464;-68
2022/06/11 09:07:20;;;;;;;4.60;2.20;;;24.70;74.20;;;;;;5094825;28;20905;-69
2022/06/11 09:09:58;;;;;;;4.80;3.00;;;24.70;74.50;;;;;;5094915;28;20443;-69
2022/06/11 09:12:46;;;;;;;4.00;3.00;;;24.90;75.20;;;;;;5094519;28;20478;-69
2022/06/11 09:15:22;;;;;;;4.60;3.00;;;25.40;72.90;;;;;;5094752;28;20796;-69
2022/06/11 09:18:04;;;;;;;4.37;3.10;;;25.80;72.60;;;;;;5095045;28;20432;-69
2022/06/11 09:20:42;;;;;;;4.40;3.40;;;26.20;72.30;;;;;;5094925;28;20431;-69
2022/06/11 09:23:33;;;;;;;6.87;4.07;;;26.50;69.40;;;;;;5094986;28;20432;-70
2022/06/11 09:26:15;;;;;;;7.30;3.57;;;26.70;67.70;;;;;;5085108;28;20493;-71
2022/06/11 09:28:45;;;;;;;5.00;3.27;;;26.70;67.20;;;;;;5095055;28;20438;-71
2022/06/11 09:31:16;;;;;;;3.53;3.10;;;26.70;66.50;;;;;;5094611;28;20474;-71
2022/06/11 09:33:50;;;;;;;5.07;3.10;;;26.70;65.70;;;;;;5094663;28;20462;-70
2022/06/11 09:36:26;;;;;;;4.33;3.93;;;26.60;65.00;;;;;;5094553;28;20897;-70
2022/06/11 09:39:04;;;;;;;3.30;3.00;;;26.70;65.80;;;;;;5094343;28;20905;-70
2022/06/11 09:41:41;;;;;;;4.23;3.50;;;26.80;66.30;;;;;;5094010;28;20480;-70
2022/06/11 09:44:22;;;;;;;4.63;3.47;;;27.10;67.20;;;;;;5094578;28;20460;-71
2022/06/11 09:46:55;;;;;;;5.93;3.97;;;27.20;66.40;;;;;;5094502;28;20423;-71
2022/06/11 09:49:31;;;;;;;4.47;3.87;;;27.50;65.60;;;;;;5094488;28;20432;-71
2022/06/11 09:52:08;;;;;;;28.90;10.73;;;27.60;60.80;;;;;;5093956;28;20968;-70
2022/06/11 09:54:46;;;;;;;7.97;4.40;;;27.60;59.90;;;;;;5094401;28;20789;-70
2022/06/11 09:57:26;;;;;;;4.77;4.37;;;27.60;63.70;;;;;;5093976;28;20523;-70
2022/06/11 09:59:56;;;;;;;6.13;4.13;;;27.70;61.90;;;;;;5094341;28;20432;-70
2022/06/11 10:02:31;;;;;;;5.83;4.70;;;27.80;62.20;;;;;;5094160;28;20471;-71
2022/06/11 10:05:01;;;;;;;4.37;3.93;;;27.90;58.20;;;;;;5093807;28;20495;-71
2022/06/11 10:07:32;;;;;;;6.67;3.77;;;27.80;60.60;;;;;;5094144;28;20448;-70
2022/06/11 10:10:04;;;;;;;4.50;4.10;;;27.60;60.10;;;;;;5094055;28;20432;-70
2022/06/11 10:12:36;;;;;;;5.10;4.60;;;27.70;61.10;;;;;;5093878;28;20464;-71
2022/06/11 10:15:11;;;;;;;4.00;3.67;;;27.90;60.00;;;;;;5093924;28;20424;-71
2022/06/11 10:17:44;;;;;;;3.93;3.43;;;28.00;59.20;;;;;;5093970;28;20428;-71
2022/06/11 10:20:18;;;;;;;3.87;3.50;;;27.90;58.70;;;;;;5093991;28;20454;-71
2022/06/11 10:22:53;;;;;;;4.40;3.20;;;27.90;59.90;;;;;;5093925;28;20464;-71
2022/06/11 10:25:26;;;;;;;9.70;3.53;;;28.00;60.30;;;;;;5093434;28;20818;-71
2022/06/11 10:28:00;;;;;;;7.47;3.80;;;28.20;60.00;;;;;;5093829;28;20432;-71
2022/06/11 10:30:39;;;;;;;3.80;3.23;;;28.30;58.40;;;;;;5093800;28;20485;-71
2022/06/11 10:33:12;;;;;;;4.03;3.53;;;28.40;59.90;;;;;;5093822;28;20791;-71
2022/06/11 10:35:44;;;;;;;4.40;3.40;;;28.40;57.90;;;;;;5093389;28;20448;-71
2022/06/11 10:38:23;;;;;;;4.23;3.87;;;28.40;58.70;;;;;;5093723;28;20468;-71
2022/06/11 10:40:53;;;;;;;4.37;3.43;;;28.50;57.40;;;;;;5093728;28;20459;-71
2022/06/11 10:43:25;;;;;;;3.70;2.93;;;28.50;57.40;;;;;;5093702;28;20451;-71
2022/06/11 10:45:52;;;;;;;3.43;3.07;;;28.80;57.70;;;;;;5093412;28;20960;-71
2022/06/11 10:48:22;;;;;;;3.37;3.00;;;28.90;55.80;;;;;;5093872;28;20432;-71
2022/06/11 10:50:50;;;;;;;5.20;3.30;;;28.90;56.80;;;;;;5094213;28;20521;-71
2022/06/11 10:53:29;;;;;;;4.27;2.87;;;29.30;55.90;;;;;;5096927;28;20435;-71
2022/06/11 10:55:58;;;;;;;3.77;3.00;;;30.10;54.90;;;;;;5099715;28;20430;-71
2022/06/11 10:58:31;;;;;;;2.60;2.40;;;30.40;51.70;;;;;;5100480;28;20440;-71
2022/06/11 11:01:00;;;;;;;3.60;2.20;;;30.80;47.90;;;;;;5099490;28;20463;-71
2022/06/11 11:03:36;;;;;;;5.10;2.10;;;31.40;48.00;;;;;;5098016;28;20431;-71
2022/06/11 11:06:05;;;;;;;2.97;2.30;;;31.80;47.40;;;;;;5097782;28;20474;-71
2022/06/11 11:08:34;;;;;;;2.60;2.40;;;32.00;47.00;;;;;;5097671;28;20443;-71
2022/06/11 11:11:01;;;;;;;4.27;2.80;;;32.60;46.20;;;;;;5097788;28;20462;-71
2022/06/11 11:13:35;;;;;;;4.43;3.00;;;33.40;43.20;;;;;;5097468;28;20438;-72
2022/06/11 11:16:10;;;;;;;4.10;3.27;;;33.80;42.80;;;;;;5097401;28;20412;-72
2022/06/11 11:18:43;;;;;;;3.97;3.10;;;33.80;43.10;;;;;;5097206;28;20922;-73
2022/06/11 11:21:19;;;;;;;5.10;2.97;;;33.20;41.40;;;;;;5097283;28;20466;-72
2022/06/11 11:23:50;;;;;;;3.20;2.87;;;32.50;43.30;;;;;;5096915;28;20476;-73
2022/06/11 11:26:25;;;;;;;3.00;2.80;;;32.40;45.90;;;;;;5097143;28;20467;-73
2022/06/11 11:28:58;;;;;;;4.17;3.00;;;33.00;44.00;;;;;;5097112;28;20434;-72
2022/06/11 11:31:28;;;;;;;3.23;2.93;;;33.70;43.10;;;;;;5097100;28;20475;-73
2022/06/11 11:34:02;;;;;;;5.90;2.90;;;34.40;39.80;;;;;;5096937;28;20851;-73
2022/06/11 11:36:30;;;;;;;3.70;2.20;;;34.70;37.60;;;;;;5096683;28;20426;-73
2022/06/11 11:39:23;;;;;;;3.63;2.30;;;34.80;38.00;;;;;;5097056;28;20427;-72
2022/06/11 11:41:54;;;;;;;3.27;1.93;;;34.70;36.80;;;;;;5096913;28;20931;-72
2022/06/11 11:44:22;;;;;;;3.33;2.03;;;34.10;39.40;;;;;;5097302;28;20442;-73
2022/06/11 11:46:53;;;;;;;2.10;1.90;;;33.80;40.00;;;;;;5096742;28;20441;-73
2022/06/11 11:49:25;;;;;;;2.83;2.20;;;33.80;39.80;;;;;;5096791;28;20458;-73
2022/06/11 11:51:52;;;;;;;4.03;2.10;;;34.00;38.70;;;;;;5096617;28;20465;-72
2022/06/11 11:54:23;;;;;;;4.20;2.00;;;33.50;38.80;;;;;;5096661;28;20454;-72
2022/06/11 11:56:55;;;;;;;4.40;2.10;;;32.70;40.30;;;;;;5096384;28;20923;-72
2022/06/11 11:59:25;;;;;;;6.27;2.27;;;32.50;40.90;;;;;;5096293;28;20423;-73
2022/06/11 12:01:55;;;;;;;2.80;2.03;;;32.60;40.40;;;;;;5096526;28;20463;-72
2022/06/11 12:04:27;;;;;;;4.10;1.50;;;32.90;40.00;;;;;;5095785;28;20908;-72
2022/06/11 12:06:57;;;;;;;7.00;2.63;;;33.20;39.60;;;;;;5096582;28;20431;-73
2022/06/11 12:09:30;;;;;;;4.20;2.03;;;33.50;39.90;;;;;;5096108;28;20901;-72
2022/06/11 12:12:05;;;;;;;5.00;2.10;;;33.90;40.00;;;;;;5096048;28;20558;-72
2022/06/11 12:14:38;;;;;;;4.57;2.07;;;34.10;38.30;;;;;;5096164;28;20423;-72
2022/06/11 12:17:27;;;;;;;2.00;1.53;;;34.40;36.80;;;;;;5096258;28;20840;-72
2022/06/11 12:20:04;;;;;;;3.87;1.80;;;35.00;35.50;;;;;;5096204;28;20446;-73
2022/06/11 12:22:39;;;;;;;3.20;1.87;;;35.30;34.40;;;;;;5096286;28;20469;-72
2022/06/11 12:25:22;;;;;;;3.87;1.60;;;35.80;34.80;;;;;;5096112;28;20463;-72
2022/06/11 12:27:50;;;;;;;7.33;2.07;;;36.40;33.40;;;;;;5096192;28;20431;-73
2022/06/11 12:30:23;;;;;;;2.83;1.73;;;36.50;33.00;;;;;;5095996;28;20455;-73
2022/06/11 12:32:50;;;;;;;3.40;1.97;;;36.40;32.40;;;;;;5095924;28;20809;-72
2022/06/11 12:35:22;;;;;;;2.50;1.57;;;36.30;31.90;;;;;;5095562;28;20457;-72
2022/06/11 12:37:59;;;;;;;2.03;1.70;;;36.50;32.30;;;;;;5096053;28;20439;-72
2022/06/11 12:40:33;;;;;;;2.60;1.40;;;36.50;32.20;;;;;;5095818;28;20438;-72
2022/06/11 12:43:13;;;;;;;3.13;1.47;;;36.80;31.30;;;;;;5095697;28;20789;-72
2022/06/11 12:45:45;;;;;;;3.83;1.43;;;36.80;31.70;;;;;;5095616;28;20474;-72
2022/06/11 12:48:39;;;;;;;3.07;1.47;;;37.20;30.20;;;;;;5095303;28;20988;-72
2022/06/11 12:51:15;;;;;;;2.03;1.30;;;37.20;30.00;;;;;;5095452;28;20474;-70
2022/06/11 12:53:56;;;;;;;2.80;1.03;;;37.40;30.10;;;;;;5095152;28;20916;-71
2022/06/11 12:56:53;;;;;;;2.23;1.20;;;37.70;30.00;;;;;;5095600;28;20431;-71
2022/06/11 12:59:34;;;;;;;2.17;1.10;;;37.90;29.50;;;;;;5095359;28;20465;-72
2022/06/11 13:02:17;;;;;;;2.77;1.40;;;38.50;29.00;;;;;;5095238;28;20221;-71
2022/06/11 13:05:09;;;;;;;1.70;1.13;;;38.30;28.60;;;;;;5094952;28;20466;-70
2022/06/11 13:07:44;;;;;;;4.73;1.70;;;37.90;28.60;;;;;;5095235;28;20420;-72